sensor_id;sensor_type;location;lat;lon;timestamp;P1;durP1;ratioP1;P2;durP2;ratioP2
54125;SDS011;40360;52.992;6.796;2023-06-14T00:00:31;7.55;;;2.60;;
54125;SDS011;40360;52.992;6.796;2023-06-14T00:02:56;7.20;;;2.47;;
54125;SDS011;40360;52.992;6.796;2023-06-14T00:05:23;3.55;;;2.40;;
54125;SDS011;40360;52.992;6.796;2023-06-14T00:07:49;5.55;;;2.38;;
54125;SDS011;40360;52.992;6.796;2023-06-14T00:10:18;4.88;;;2.63;;
54125;SDS011;40360;52.992;6.796;2023-06-14T00:12:44;8.88;;;2.17;;
54125;SDS011;40360;52.992;6.796;2023-06-14T00:15:10;7.53;;;2.63;;
54125;SDS011;40360;52.992;6.796;2023-06-14T00:17:35;6.20;;;2.35;;
54125;SDS011;40360;52.992;6.796;2023-06-14T00:20:02;7.55;;;2.50;;
54125;SDS011;40360;52.992;6.796;2023-06-14T00:22:32;12.95;;;2.92;;
54125;SDS011;40360;52.992;6.796;2023-06-14T00:24:58;7.88;;;2.33;;
54125;SDS011;40360;52.992;6.796;2023-06-14T00:27:24;5.63;;;2.38;;
54125;SDS011;40360;52.992;6.796;2023-06-14T00:29:50;8.35;;;2.53;;
54125;SDS011;40360;52.992;6.796;2023-06-14T00:32:15;5.88;;;2.38;;
54125;SDS011;40360;52.992;6.796;2023-06-14T00:34:41;9.88;;;2.42;;
54125;SDS011;40360;52.992;6.796;2023-06-14T00:37:08;5.38;;;2.03;;
54125;SDS011;40360;52.992;6.796;2023-06-14T00:39:33;6.43;;;2.30;;
54125;SDS011;40360;52.992;6.796;2023-06-14T00:41:59;7.80;;;2.47;;
54125;SDS011;40360;52.992;6.796;2023-06-14T00:44:25;14.95;;;2.70;;
54125;SDS011;40360;52.992;6.796;2023-06-14T00:46:51;9.45;;;2.40;;
54125;SDS011;40360;52.992;6.796;2023-06-14T00:49:16;6.68;;;2.80;;
54125;SDS011;40360;52.992;6.796;2023-06-14T00:51:44;4.65;;;2.63;;
54125;SDS011;40360;52.992;6.796;2023-06-14T00:54:10;6.10;;;2.38;;
54125;SDS011;40360;52.992;6.796;2023-06-14T00:56:36;2.80;;;2.10;;
54125;SDS011;40360;52.992;6.796;2023-06-14T00:59:02;5.90;;;3.15;;
54125;SDS011;40360;52.992;6.796;2023-06-14T01:01:29;4.35;;;2.22;;
54125;SDS011;40360;52.992;6.796;2023-06-14T01:03:57;4.57;;;2.08;;
54125;SDS011;40360;52.992;6.796;2023-06-14T01:12:31;4.45;;;1.88;;
54125;SDS011;40360;52.992;6.796;2023-06-14T01:15:00;5.75;;;2.15;;
54125;SDS011;40360;52.992;6.796;2023-06-14T01:17:27;7.70;;;2.70;;
54125;SDS011;40360;52.992;6.796;2023-06-14T01:19:58;4.88;;;2.50;;
54125;SDS011;40360;52.992;6.796;2023-06-14T01:22:26;4.95;;;2.60;;
54125;SDS011;40360;52.992;6.796;2023-06-14T01:24:52;6.53;;;2.35;;
54125;SDS011;40360;52.992;6.796;2023-06-14T01:27:23;7.82;;;3.58;;
54125;SDS011;40360;52.992;6.796;2023-06-14T01:29:53;4.22;;;2.47;;
54125;SDS011;40360;52.992;6.796;2023-06-14T01:32:22;6.38;;;2.20;;
54125;SDS011;40360;52.992;6.796;2023-06-14T01:34:49;9.77;;;2.47;;
54125;SDS011;40360;52.992;6.796;2023-06-14T01:37:15;11.25;;;2.78;;
54125;SDS011;40360;52.992;6.796;2023-06-14T01:39:42;8.85;;;2.97;;
54125;SDS011;40360;52.992;6.796;2023-06-14T01:42:09;7.85;;;3.45;;
54125;SDS011;40360;52.992;6.796;2023-06-14T01:44:36;8.95;;;2.63;;
54125;SDS011;40360;52.992;6.796;2023-06-14T01:47:02;6.35;;;2.55;;
54125;SDS011;40360;52.992;6.796;2023-06-14T01:49:28;10.00;;;2.55;;
54125;SDS011;40360;52.992;6.796;2023-06-14T01:51:54;6.70;;;3.08;;
54125;SDS011;40360;52.992;6.796;2023-06-14T01:54:19;7.18;;;2.60;;
54125;SDS011;40360;52.992;6.796;2023-06-14T01:56:46;5.68;;;2.63;;
54125;SDS011;40360;52.992;6.796;2023-06-14T01:59:12;4.75;;;2.58;;
54125;SDS011;40360;52.992;6.796;2023-06-14T02:01:38;3.45;;;2.33;;
54125;SDS011;40360;52.992;6.796;2023-06-14T02:04:03;3.03;;;2.63;;
54125;SDS011;40360;52.992;6.796;2023-06-14T02:06:29;7.07;;;3.50;;
54125;SDS011;40360;52.992;6.796;2023-06-14T02:08:55;5.47;;;2.55;;
54125;SDS011;40360;52.992;6.796;2023-06-14T02:11:20;7.28;;;2.60;;
54125;SDS011;40360;52.992;6.796;2023-06-14T02:13:46;5.35;;;2.55;;
54125;SDS011;40360;52.992;6.796;2023-06-14T02:16:12;4.25;;;2.78;;
54125;SDS011;40360;52.992;6.796;2023-06-14T02:18:37;4.82;;;2.50;;
54125;SDS011;40360;52.992;6.796;2023-06-14T02:21:03;5.88;;;2.80;;
54125;SDS011;40360;52.992;6.796;2023-06-14T02:23:28;4.85;;;2.53;;
54125;SDS011;40360;52.992;6.796;2023-06-14T02:25:54;5.00;;;2.67;;
54125;SDS011;40360;52.992;6.796;2023-06-14T02:28:20;5.45;;;2.90;;
54125;SDS011;40360;52.992;6.796;2023-06-14T02:30:46;4.38;;;2.50;;
54125;SDS011;40360;52.992;6.796;2023-06-14T02:33:11;6.88;;;2.63;;
54125;SDS011;40360;52.992;6.796;2023-06-14T02:35:38;4.80;;;2.63;;
54125;SDS011;40360;52.992;6.796;2023-06-14T02:38:03;4.47;;;2.63;;
54125;SDS011;40360;52.992;6.796;2023-06-14T02:40:29;8.23;;;2.72;;
54125;SDS011;40360;52.992;6.796;2023-06-14T02:42:55;9.18;;;2.50;;
54125;SDS011;40360;52.992;6.796;2023-06-14T02:45:20;12.07;;;2.53;;
54125;SDS011;40360;52.992;6.796;2023-06-14T02:47:46;9.43;;;2.92;;
54125;SDS011;40360;52.992;6.796;2023-06-14T02:50:11;4.00;;;2.60;;
54125;SDS011;40360;52.992;6.796;2023-06-14T02:52:37;5.50;;;2.63;;
54125;SDS011;40360;52.992;6.796;2023-06-14T02:55:03;6.35;;;2.70;;
54125;SDS011;40360;52.992;6.796;2023-06-14T02:57:29;5.40;;;3.30;;
54125;SDS011;40360;52.992;6.796;2023-06-14T02:59:55;15.80;;;4.25;;
54125;SDS011;40360;52.992;6.796;2023-06-14T03:02:21;9.02;;;3.05;;
54125;SDS011;40360;52.992;6.796;2023-06-14T03:04:46;13.05;;;3.00;;
54125;SDS011;40360;52.992;6.796;2023-06-14T03:07:12;9.38;;;3.10;;
54125;SDS011;40360;52.992;6.796;2023-06-14T03:09:38;16.02;;;4.93;;
54125;SDS011;40360;52.992;6.796;2023-06-14T03:12:04;9.40;;;3.38;;
54125;SDS011;40360;52.992;6.796;2023-06-14T03:14:37;15.45;;;3.85;;
54125;SDS011;40360;52.992;6.796;2023-06-14T03:17:03;30.08;;;4.90;;
54125;SDS011;40360;52.992;6.796;2023-06-14T03:19:29;54.45;;;5.93;;
54125;SDS011;40360;52.992;6.796;2023-06-14T03:21:55;23.95;;;3.67;;
54125;SDS011;40360;52.992;6.796;2023-06-14T03:24:24;13.98;;;3.78;;
54125;SDS011;40360;52.992;6.796;2023-06-14T03:26:52;15.55;;;3.13;;
54125;SDS011;40360;52.992;6.796;2023-06-14T03:29:18;15.88;;;3.58;;
54125;SDS011;40360;52.992;6.796;2023-06-14T03:32:00;10.32;;;3.20;;
54125;SDS011;40360;52.992;6.796;2023-06-14T03:34:27;11.18;;;3.53;;
54125;SDS011;40360;52.992;6.796;2023-06-14T03:36:52;9.73;;;3.38;;
54125;SDS011;40360;52.992;6.796;2023-06-14T03:39:18;12.70;;;3.40;;
54125;SDS011;40360;52.992;6.796;2023-06-14T03:41:44;11.00;;;3.10;;
54125;SDS011;40360;52.992;6.796;2023-06-14T03:44:10;11.55;;;3.00;;
54125;SDS011;40360;52.992;6.796;2023-06-14T03:46:36;7.75;;;3.22;;
54125;SDS011;40360;52.992;6.796;2023-06-14T03:49:02;8.77;;;2.83;;
54125;SDS011;40360;52.992;6.796;2023-06-14T03:51:28;5.25;;;3.28;;
54125;SDS011;40360;52.992;6.796;2023-06-14T03:53:54;10.13;;;3.72;;
54125;SDS011;40360;52.992;6.796;2023-06-14T03:56:20;10.35;;;3.55;;
54125;SDS011;40360;52.992;6.796;2023-06-14T03:58:46;10.15;;;3.55;;
54125;SDS011;40360;52.992;6.796;2023-06-14T04:01:12;15.18;;;3.47;;
54125;SDS011;40360;52.992;6.796;2023-06-14T04:03:38;6.20;;;3.30;;
54125;SDS011;40360;52.992;6.796;2023-06-14T04:06:05;9.05;;;3.08;;
54125;SDS011;40360;52.992;6.796;2023-06-14T04:08:31;21.63;;;4.03;;
54125;SDS011;40360;52.992;6.796;2023-06-14T04:10:57;12.23;;;3.72;;
54125;SDS011;40360;52.992;6.796;2023-06-14T04:13:22;6.28;;;3.35;;
54125;SDS011;40360;52.992;6.796;2023-06-14T04:15:48;7.38;;;3.25;;
54125;SDS011;40360;52.992;6.796;2023-06-14T04:18:14;8.93;;;3.45;;
54125;SDS011;40360;52.992;6.796;2023-06-14T04:20:39;6.43;;;2.92;;
54125;SDS011;40360;52.992;6.796;2023-06-14T04:23:15;4.85;;;3.30;;
54125;SDS011;40360;52.992;6.796;2023-06-14T04:25:43;5.93;;;3.15;;
54125;SDS011;40360;52.992;6.796;2023-06-14T04:28:13;5.72;;;3.40;;
54125;SDS011;40360;52.992;6.796;2023-06-14T04:30:41;5.40;;;3.42;;
54125;SDS011;40360;52.992;6.796;2023-06-14T04:33:07;7.40;;;3.58;;
54125;SDS011;40360;52.992;6.796;2023-06-14T04:35:33;7.63;;;3.45;;
54125;SDS011;40360;52.992;6.796;2023-06-14T04:38:01;5.72;;;3.38;;
54125;SDS011;40360;52.992;6.796;2023-06-14T04:40:29;8.60;;;3.30;;
54125;SDS011;40360;52.992;6.796;2023-06-14T04:42:55;6.10;;;3.10;;
54125;SDS011;40360;52.992;6.796;2023-06-14T04:45:22;6.72;;;4.22;;
54125;SDS011;40360;52.992;6.796;2023-06-14T04:47:49;11.40;;;3.90;;
54125;SDS011;40360;52.992;6.796;2023-06-14T04:50:15;10.13;;;3.38;;
54125;SDS011;40360;52.992;6.796;2023-06-14T04:52:43;5.15;;;3.25;;
54125;SDS011;40360;52.992;6.796;2023-06-14T04:55:08;6.93;;;3.70;;
54125;SDS011;40360;52.992;6.796;2023-06-14T04:57:35;10.45;;;3.85;;
54125;SDS011;40360;52.992;6.796;2023-06-14T05:00:00;6.10;;;3.72;;
54125;SDS011;40360;52.992;6.796;2023-06-14T05:02:29;5.43;;;3.70;;
54125;SDS011;40360;52.992;6.796;2023-06-14T05:04:55;7.47;;;4.00;;
54125;SDS011;40360;52.992;6.796;2023-06-14T05:07:22;6.53;;;3.53;;
54125;SDS011;40360;52.992;6.796;2023-06-14T05:09:48;6.70;;;3.60;;
54125;SDS011;40360;52.992;6.796;2023-06-14T05:12:14;5.95;;;3.80;;
54125;SDS011;40360;52.992;6.796;2023-06-14T05:14:43;7.03;;;3.22;;
54125;SDS011;40360;52.992;6.796;2023-06-14T05:17:10;9.20;;;3.60;;
54125;SDS011;40360;52.992;6.796;2023-06-14T05:19:35;5.57;;;2.97;;
54125;SDS011;40360;52.992;6.796;2023-06-14T05:25:19;4.20;;;3.00;;
54125;SDS011;40360;52.992;6.796;2023-06-14T05:28:08;5.40;;;3.10;;
54125;SDS011;40360;52.992;6.796;2023-06-14T05:30:38;7.45;;;3.70;;
54125;SDS011;40360;52.992;6.796;2023-06-14T05:33:04;12.70;;;3.88;;
54125;SDS011;40360;52.992;6.796;2023-06-14T05:35:30;8.05;;;3.50;;
54125;SDS011;40360;52.992;6.796;2023-06-14T05:37:56;4.68;;;3.42;;
54125;SDS011;40360;52.992;6.796;2023-06-14T05:40:21;7.00;;;3.63;;
54125;SDS011;40360;52.992;6.796;2023-06-14T05:42:47;8.70;;;3.63;;
54125;SDS011;40360;52.992;6.796;2023-06-14T06:02:07;4.72;;;3.58;;
54125;SDS011;40360;52.992;6.796;2023-06-14T06:04:32;9.32;;;3.55;;
54125;SDS011;40360;52.992;6.796;2023-06-14T06:06:58;12.73;;;3.67;;
54125;SDS011;40360;52.992;6.796;2023-06-14T06:09:24;8.43;;;3.92;;
54125;SDS011;40360;52.992;6.796;2023-06-14T06:11:49;8.23;;;3.55;;
54125;SDS011;40360;52.992;6.796;2023-06-14T06:14:15;9.90;;;4.00;;
54125;SDS011;40360;52.992;6.796;2023-06-14T06:16:40;8.35;;;3.85;;
54125;SDS011;40360;52.992;6.796;2023-06-14T06:19:06;5.25;;;3.45;;
54125;SDS011;40360;52.992;6.796;2023-06-14T06:21:32;7.60;;;3.33;;
54125;SDS011;40360;52.992;6.796;2023-06-14T06:23:58;7.18;;;3.40;;
54125;SDS011;40360;52.992;6.796;2023-06-14T06:26:23;9.60;;;4.00;;
54125;SDS011;40360;52.992;6.796;2023-06-14T06:28:51;5.80;;;3.10;;
54125;SDS011;40360;52.992;6.796;2023-06-14T06:31:17;5.22;;;2.70;;
54125;SDS011;40360;52.992;6.796;2023-06-14T06:33:42;6.68;;;2.97;;
54125;SDS011;40360;52.992;6.796;2023-06-14T06:36:08;7.35;;;3.60;;
54125;SDS011;40360;52.992;6.796;2023-06-14T06:38:34;5.93;;;2.92;;
54125;SDS011;40360;52.992;6.796;2023-06-14T06:41:00;6.15;;;3.35;;
54125;SDS011;40360;52.992;6.796;2023-06-14T06:43:25;4.45;;;2.88;;
54125;SDS011;40360;52.992;6.796;2023-06-14T06:45:51;8.73;;;2.70;;
54125;SDS011;40360;52.992;6.796;2023-06-14T06:48:16;5.03;;;2.97;;
54125;SDS011;40360;52.992;6.796;2023-06-14T06:50:42;3.90;;;2.78;;
54125;SDS011;40360;52.992;6.796;2023-06-14T06:53:08;7.93;;;2.67;;
54125;SDS011;40360;52.992;6.796;2023-06-14T06:55:34;7.43;;;2.65;;
54125;SDS011;40360;52.992;6.796;2023-06-14T06:57:59;4.00;;;2.75;;
54125;SDS011;40360;52.992;6.796;2023-06-14T07:00:25;4.22;;;2.50;;
54125;SDS011;40360;52.992;6.796;2023-06-14T07:02:51;5.15;;;2.67;;
54125;SDS011;40360;52.992;6.796;2023-06-14T07:05:17;7.10;;;2.83;;
54125;SDS011;40360;52.992;6.796;2023-06-14T07:07:43;4.75;;;2.38;;
54125;SDS011;40360;52.992;6.796;2023-06-14T07:10:09;8.88;;;2.78;;
54125;SDS011;40360;52.992;6.796;2023-06-14T07:12:35;3.88;;;2.75;;
54125;SDS011;40360;52.992;6.796;2023-06-14T07:15:04;8.52;;;2.78;;
54125;SDS011;40360;52.992;6.796;2023-06-14T07:17:33;11.95;;;3.13;;
54125;SDS011;40360;52.992;6.796;2023-06-14T07:20:00;6.80;;;2.55;;
54125;SDS011;40360;52.992;6.796;2023-06-14T07:22:43;8.38;;;3.63;;
54125;SDS011;40360;52.992;6.796;2023-06-14T07:25:09;6.75;;;3.03;;
54125;SDS011;40360;52.992;6.796;2023-06-14T07:27:39;7.05;;;3.30;;
54125;SDS011;40360;52.992;6.796;2023-06-14T07:30:08;6.90;;;3.20;;
54125;SDS011;40360;52.992;6.796;2023-06-14T07:32:35;6.05;;;2.40;;
54125;SDS011;40360;52.992;6.796;2023-06-14T07:35:01;5.85;;;3.13;;
54125;SDS011;40360;52.992;6.796;2023-06-14T07:37:28;7.10;;;2.45;;
54125;SDS011;40360;52.992;6.796;2023-06-14T07:39:53;4.75;;;2.75;;
54125;SDS011;40360;52.992;6.796;2023-06-14T07:42:19;6.85;;;2.67;;
54125;SDS011;40360;52.992;6.796;2023-06-14T07:44:45;6.22;;;2.88;;
54125;SDS011;40360;52.992;6.796;2023-06-14T07:47:10;5.10;;;2.47;;
54125;SDS011;40360;52.992;6.796;2023-06-14T07:49:36;3.67;;;2.50;;
54125;SDS011;40360;52.992;6.796;2023-06-14T07:52:02;3.20;;;2.30;;
54125;SDS011;40360;52.992;6.796;2023-06-14T07:54:30;7.47;;;3.05;;
54125;SDS011;40360;52.992;6.796;2023-06-14T07:56:56;3.17;;;2.50;;
54125;SDS011;40360;52.992;6.796;2023-06-14T07:59:23;3.70;;;2.35;;
54125;SDS011;40360;52.992;6.796;2023-06-14T08:01:49;5.60;;;2.70;;
54125;SDS011;40360;52.992;6.796;2023-06-14T08:04:15;4.15;;;2.40;;
54125;SDS011;40360;52.992;6.796;2023-06-14T08:06:41;7.18;;;2.75;;
54125;SDS011;40360;52.992;6.796;2023-06-14T08:09:09;6.32;;;2.20;;
54125;SDS011;40360;52.992;6.796;2023-06-14T08:11:36;4.05;;;2.03;;
54125;SDS011;40360;52.992;6.796;2023-06-14T08:14:02;9.65;;;2.40;;
54125;SDS011;40360;52.992;6.796;2023-06-14T08:16:27;5.88;;;2.25;;
54125;SDS011;40360;52.992;6.796;2023-06-14T08:18:53;5.18;;;2.40;;
54125;SDS011;40360;52.992;6.796;2023-06-14T08:21:19;4.68;;;2.50;;
54125;SDS011;40360;52.992;6.796;2023-06-14T08:23:45;3.97;;;2.55;;
54125;SDS011;40360;52.992;6.796;2023-06-14T08:26:11;6.38;;;2.38;;
54125;SDS011;40360;52.992;6.796;2023-06-14T08:28:58;6.25;;;2.45;;
54125;SDS011;40360;52.992;6.796;2023-06-14T08:31:23;6.53;;;2.50;;
54125;SDS011;40360;52.992;6.796;2023-06-14T08:33:50;5.07;;;2.42;;
54125;SDS011;40360;52.992;6.796;2023-06-14T08:36:16;4.38;;;2.20;;
54125;SDS011;40360;52.992;6.796;2023-06-14T08:38:41;10.40;;;2.67;;
54125;SDS011;40360;52.992;6.796;2023-06-14T08:41:07;7.13;;;2.50;;
54125;SDS011;40360;52.992;6.796;2023-06-14T08:43:38;9.18;;;2.83;;
54125;SDS011;40360;52.992;6.796;2023-06-14T08:46:04;5.90;;;2.60;;
54125;SDS011;40360;52.992;6.796;2023-06-14T08:48:33;9.02;;;2.20;;
54125;SDS011;40360;52.992;6.796;2023-06-14T08:51:00;7.45;;;2.33;;
54125;SDS011;40360;52.992;6.796;2023-06-14T08:53:32;5.63;;;2.60;;
54125;SDS011;40360;52.992;6.796;2023-06-14T08:56:02;3.97;;;2.03;;
54125;SDS011;40360;52.992;6.796;2023-06-14T08:58:30;3.92;;;1.90;;
54125;SDS011;40360;52.992;6.796;2023-06-14T09:01:00;5.47;;;2.15;;
54125;SDS011;40360;52.992;6.796;2023-06-14T09:03:26;3.22;;;1.85;;
54125;SDS011;40360;52.992;6.796;2023-06-14T09:05:58;4.18;;;1.83;;
54125;SDS011;40360;52.992;6.796;2023-06-14T09:08:28;3.70;;;2.47;;
54125;SDS011;40360;52.992;6.796;2023-06-14T09:10:56;3.75;;;2.45;;
54125;SDS011;40360;52.992;6.796;2023-06-14T09:13:22;6.35;;;2.20;;
54125;SDS011;40360;52.992;6.796;2023-06-14T09:15:48;5.43;;;2.17;;
54125;SDS011;40360;52.992;6.796;2023-06-14T09:18:14;4.28;;;1.98;;
54125;SDS011;40360;52.992;6.796;2023-06-14T09:20:40;5.25;;;2.20;;
54125;SDS011;40360;52.992;6.796;2023-06-14T09:23:06;3.90;;;2.38;;
54125;SDS011;40360;52.992;6.796;2023-06-14T09:25:33;3.47;;;2.40;;
54125;SDS011;40360;52.992;6.796;2023-06-14T09:28:08;5.88;;;2.05;;
54125;SDS011;40360;52.992;6.796;2023-06-14T09:30:34;6.82;;;2.53;;
54125;SDS011;40360;52.992;6.796;2023-06-14T09:33:00;5.28;;;2.17;;
54125;SDS011;40360;52.992;6.796;2023-06-14T09:35:26;3.35;;;2.17;;
54125;SDS011;40360;52.992;6.796;2023-06-14T09:37:54;5.13;;;2.25;;
54125;SDS011;40360;52.992;6.796;2023-06-14T09:40:20;3.00;;;1.75;;
54125;SDS011;40360;52.992;6.796;2023-06-14T09:42:47;4.72;;;1.90;;
54125;SDS011;40360;52.992;6.796;2023-06-14T09:45:13;7.30;;;2.25;;
54125;SDS011;40360;52.992;6.796;2023-06-14T09:47:40;2.17;;;1.85;;
54125;SDS011;40360;52.992;6.796;2023-06-14T09:50:07;3.25;;;1.90;;
54125;SDS011;40360;52.992;6.796;2023-06-14T09:52:33;3.47;;;1.52;;
54125;SDS011;40360;52.992;6.796;2023-06-14T09:54:59;6.22;;;2.00;;
54125;SDS011;40360;52.992;6.796;2023-06-14T09:57:25;4.90;;;2.38;;
54125;SDS011;40360;52.992;6.796;2023-06-14T09:59:53;3.05;;;1.73;;
54125;SDS011;40360;52.992;6.796;2023-06-14T10:02:36;6.70;;;2.03;;
54125;SDS011;40360;52.992;6.796;2023-06-14T10:05:07;3.47;;;2.35;;
54125;SDS011;40360;52.992;6.796;2023-06-14T10:10:24;2.13;;;1.48;;
54125;SDS011;40360;52.992;6.796;2023-06-14T10:12:50;5.20;;;1.98;;
54125;SDS011;40360;52.992;6.796;2023-06-14T10:15:38;4.18;;;1.95;;
54125;SDS011;40360;52.992;6.796;2023-06-14T10:21:08;3.75;;;1.80;;
54125;SDS011;40360;52.992;6.796;2023-06-14T10:23:54;4.57;;;1.85;;
54125;SDS011;40360;52.992;6.796;2023-06-14T10:26:22;3.97;;;1.73;;
54125;SDS011;40360;52.992;6.796;2023-06-14T10:28:59;3.65;;;1.80;;
54125;SDS011;40360;52.992;6.796;2023-06-14T10:31:46;4.47;;;1.65;;
54125;SDS011;40360;52.992;6.796;2023-06-14T10:34:23;4.38;;;1.58;;
54125;SDS011;40360;52.992;6.796;2023-06-14T10:37:27;3.47;;;1.80;;
54125;SDS011;40360;52.992;6.796;2023-06-14T10:39:46;5.80;;;2.58;;
54125;SDS011;40360;52.992;6.796;2023-06-14T10:42:12;3.97;;;1.80;;
54125;SDS011;40360;52.992;6.796;2023-06-14T10:44:42;4.05;;;1.63;;
54125;SDS011;40360;52.992;6.796;2023-06-14T10:50:05;4.25;;;1.77;;
54125;SDS011;40360;52.992;6.796;2023-06-14T10:52:32;4.45;;;2.22;;
54125;SDS011;40360;52.992;6.796;2023-06-14T10:57:43;4.32;;;1.92;;
54125;SDS011;40360;52.992;6.796;2023-06-14T11:00:10;4.15;;;1.40;;
54125;SDS011;40360;52.992;6.796;2023-06-14T11:05:29;4.68;;;1.85;;
54125;SDS011;40360;52.992;6.796;2023-06-14T11:08:02;5.50;;;2.20;;
54125;SDS011;40360;52.992;6.796;2023-06-14T11:10:40;3.00;;;2.03;;
54125;SDS011;40360;52.992;6.796;2023-06-14T11:13:07;3.63;;;2.22;;
54125;SDS011;40360;52.992;6.796;2023-06-14T11:15:34;3.35;;;1.90;;
54125;SDS011;40360;52.992;6.796;2023-06-14T11:18:01;10.80;;;2.00;;
54125;SDS011;40360;52.992;6.796;2023-06-14T11:20:29;5.65;;;2.00;;
54125;SDS011;40360;52.992;6.796;2023-06-14T11:22:57;4.85;;;2.30;;
54125;SDS011;40360;52.992;6.796;2023-06-14T11:25:23;4.60;;;1.90;;
54125;SDS011;40360;52.992;6.796;2023-06-14T11:27:50;6.95;;;1.90;;
54125;SDS011;40360;52.992;6.796;2023-06-14T11:30:16;3.67;;;1.83;;
54125;SDS011;40360;52.992;6.796;2023-06-14T11:32:42;8.13;;;1.73;;
54125;SDS011;40360;52.992;6.796;2023-06-14T11:35:11;6.10;;;1.90;;
54125;SDS011;40360;52.992;6.796;2023-06-14T11:37:37;3.38;;;1.83;;
54125;SDS011;40360;52.992;6.796;2023-06-14T11:40:04;3.05;;;2.10;;
54125;SDS011;40360;52.992;6.796;2023-06-14T11:42:35;2.53;;;1.80;;
54125;SDS011;40360;52.992;6.796;2023-06-14T11:45:02;7.85;;;1.92;;
54125;SDS011;40360;52.992;6.796;2023-06-14T11:47:33;5.28;;;1.88;;
54125;SDS011;40360;52.992;6.796;2023-06-14T11:50:00;2.85;;;1.98;;
54125;SDS011;40360;52.992;6.796;2023-06-14T11:52:27;3.13;;;1.90;;
54125;SDS011;40360;52.992;6.796;2023-06-14T11:54:53;3.65;;;1.80;;
54125;SDS011;40360;52.992;6.796;2023-06-14T11:57:19;5.80;;;1.85;;
54125;SDS011;40360;52.992;6.796;2023-06-14T11:59:45;3.60;;;1.60;;
54125;SDS011;40360;52.992;6.796;2023-06-14T12:02:15;4.55;;;1.80;;
54125;SDS011;40360;52.992;6.796;2023-06-14T12:04:46;2.00;;;1.80;;
54125;SDS011;40360;52.992;6.796;2023-06-14T12:07:16;2.53;;;1.52;;
54125;SDS011;40360;52.992;6.796;2023-06-14T12:12:23;3.80;;;1.52;;
54125;SDS011;40360;52.992;6.796;2023-06-14T12:14:50;2.30;;;1.77;;
54125;SDS011;40360;52.992;6.796;2023-06-14T12:17:17;4.88;;;1.70;;
54125;SDS011;40360;52.992;6.796;2023-06-14T12:19:43;4.65;;;1.98;;
54125;SDS011;40360;52.992;6.796;2023-06-14T12:22:10;4.13;;;1.92;;
54125;SDS011;40360;52.992;6.796;2023-06-14T12:24:37;6.28;;;2.00;;
54125;SDS011;40360;52.992;6.796;2023-06-14T12:27:04;3.17;;;1.50;;
54125;SDS011;40360;52.992;6.796;2023-06-14T12:29:30;2.65;;;1.88;;
54125;SDS011;40360;52.992;6.796;2023-06-14T12:31:56;5.22;;;2.00;;
54125;SDS011;40360;52.992;6.796;2023-06-14T12:34:25;4.90;;;2.22;;
54125;SDS011;40360;52.992;6.796;2023-06-14T12:36:52;4.28;;;2.17;;
54125;SDS011;40360;52.992;6.796;2023-06-14T12:39:18;3.00;;;1.70;;
54125;SDS011;40360;52.992;6.796;2023-06-14T12:41:44;4.20;;;1.70;;
54125;SDS011;40360;52.992;6.796;2023-06-14T12:44:13;6.18;;;1.77;;
54125;SDS011;40360;52.992;6.796;2023-06-14T12:46:40;5.10;;;1.90;;
54125;SDS011;40360;52.992;6.796;2023-06-14T12:49:10;3.28;;;1.40;;
54125;SDS011;40360;52.992;6.796;2023-06-14T12:51:37;6.22;;;2.03;;
54125;SDS011;40360;52.992;6.796;2023-06-14T12:54:03;2.60;;;1.75;;
54125;SDS011;40360;52.992;6.796;2023-06-14T12:56:30;3.47;;;2.15;;
54125;SDS011;40360;52.992;6.796;2023-06-14T12:58:57;9.93;;;1.85;;
54125;SDS011;40360;52.992;6.796;2023-06-14T13:01:23;5.78;;;1.77;;
54125;SDS011;40360;52.992;6.796;2023-06-14T13:03:49;3.97;;;1.90;;
54125;SDS011;40360;52.992;6.796;2023-06-14T13:06:17;2.72;;;1.70;;
54125;SDS011;40360;52.992;6.796;2023-06-14T13:08:43;4.55;;;1.65;;
54125;SDS011;40360;52.992;6.796;2023-06-14T13:11:08;4.80;;;2.08;;
54125;SDS011;40360;52.992;6.796;2023-06-14T13:13:34;9.90;;;1.98;;
54125;SDS011;40360;52.992;6.796;2023-06-14T13:16:00;3.38;;;1.50;;
54125;SDS011;40360;52.992;6.796;2023-06-14T13:18:26;2.33;;;1.70;;
54125;SDS011;40360;52.992;6.796;2023-06-14T13:20:52;4.00;;;1.50;;
54125;SDS011;40360;52.992;6.796;2023-06-14T13:23:17;5.38;;;2.10;;
54125;SDS011;40360;52.992;6.796;2023-06-14T13:25:43;3.17;;;1.70;;
54125;SDS011;40360;52.992;6.796;2023-06-14T13:28:09;3.78;;;1.65;;
54125;SDS011;40360;52.992;6.796;2023-06-14T13:30:35;2.83;;;1.92;;
54125;SDS011;40360;52.992;6.796;2023-06-14T13:33:01;3.95;;;2.10;;
54125;SDS011;40360;52.992;6.796;2023-06-14T13:35:27;4.90;;;1.95;;
54125;SDS011;40360;52.992;6.796;2023-06-14T13:37:53;3.25;;;2.00;;
54125;SDS011;40360;52.992;6.796;2023-06-14T13:40:18;6.82;;;2.00;;
54125;SDS011;40360;52.992;6.796;2023-06-14T13:42:45;7.68;;;2.08;;
54125;SDS011;40360;52.992;6.796;2023-06-14T13:45:11;4.63;;;1.80;;
54125;SDS011;40360;52.992;6.796;2023-06-14T13:47:38;4.30;;;2.20;;
54125;SDS011;40360;52.992;6.796;2023-06-14T13:50:04;4.35;;;2.15;;
54125;SDS011;40360;52.992;6.796;2023-06-14T13:52:30;2.15;;;1.70;;
54125;SDS011;40360;52.992;6.796;2023-06-14T13:54:56;4.75;;;1.63;;
54125;SDS011;40360;52.992;6.796;2023-06-14T13:57:22;5.97;;;1.80;;
54125;SDS011;40360;52.992;6.796;2023-06-14T13:59:48;2.83;;;1.75;;
54125;SDS011;40360;52.992;6.796;2023-06-14T14:02:14;5.75;;;2.08;;
54125;SDS011;40360;52.992;6.796;2023-06-14T14:04:40;3.22;;;1.58;;
54125;SDS011;40360;52.992;6.796;2023-06-14T14:07:06;4.03;;;1.83;;
54125;SDS011;40360;52.992;6.796;2023-06-14T14:09:33;2.70;;;1.75;;
54125;SDS011;40360;52.992;6.796;2023-06-14T14:12:00;3.88;;;2.00;;
54125;SDS011;40360;52.992;6.796;2023-06-14T14:14:27;1.73;;;1.60;;
54125;SDS011;40360;52.992;6.796;2023-06-14T14:16:53;3.22;;;1.90;;
54125;SDS011;40360;52.992;6.796;2023-06-14T14:19:20;2.60;;;1.75;;
54125;SDS011;40360;52.992;6.796;2023-06-14T14:21:47;3.50;;;1.98;;
54125;SDS011;40360;52.992;6.796;2023-06-14T14:24:12;2.97;;;2.00;;
54125;SDS011;40360;52.992;6.796;2023-06-14T14:26:38;3.35;;;1.98;;
54125;SDS011;40360;52.992;6.796;2023-06-14T14:29:05;3.13;;;2.00;;
54125;SDS011;40360;52.992;6.796;2023-06-14T14:31:31;3.53;;;2.03;;
54125;SDS011;40360;52.992;6.796;2023-06-14T14:33:56;5.18;;;2.05;;
54125;SDS011;40360;52.992;6.796;2023-06-14T14:36:22;1.95;;;1.60;;
54125;SDS011;40360;52.992;6.796;2023-06-14T14:38:47;4.38;;;2.20;;
54125;SDS011;40360;52.992;6.796;2023-06-14T14:41:13;2.95;;;1.60;;
54125;SDS011;40360;52.992;6.796;2023-06-14T14:43:39;3.17;;;1.90;;
54125;SDS011;40360;52.992;6.796;2023-06-14T14:46:05;3.40;;;1.90;;
54125;SDS011;40360;52.992;6.796;2023-06-14T14:48:31;4.80;;;1.90;;
54125;SDS011;40360;52.992;6.796;2023-06-14T14:50:56;6.38;;;2.20;;
54125;SDS011;40360;52.992;6.796;2023-06-14T14:53:22;5.25;;;2.00;;
54125;SDS011;40360;52.992;6.796;2023-06-14T14:55:48;2.92;;;1.77;;
54125;SDS011;40360;52.992;6.796;2023-06-14T14:58:14;2.40;;;1.75;;
54125;SDS011;40360;52.992;6.796;2023-06-14T15:00:44;2.63;;;1.75;;
54125;SDS011;40360;52.992;6.796;2023-06-14T15:03:10;3.38;;;2.30;;
54125;SDS011;40360;52.992;6.796;2023-06-14T15:05:36;3.70;;;2.00;;
54125;SDS011;40360;52.992;6.796;2023-06-14T15:08:02;3.90;;;2.35;;
54125;SDS011;40360;52.992;6.796;2023-06-14T15:10:28;4.53;;;2.00;;
54125;SDS011;40360;52.992;6.796;2023-06-14T15:12:54;2.72;;;1.90;;
54125;SDS011;40360;52.992;6.796;2023-06-14T15:15:21;2.50;;;1.77;;
54125;SDS011;40360;52.992;6.796;2023-06-14T15:17:47;6.88;;;1.95;;
54125;SDS011;40360;52.992;6.796;2023-06-14T15:20:13;3.80;;;1.63;;
54125;SDS011;40360;52.992;6.796;2023-06-14T15:22:39;5.45;;;1.90;;
54125;SDS011;40360;52.992;6.796;2023-06-14T15:25:05;4.43;;;1.85;;
54125;SDS011;40360;52.992;6.796;2023-06-14T15:27:31;2.28;;;1.80;;